Time;durP1;ratioP1;P1;durP2;ratioP2;P2;SDS_P1;SDS_P2;PMS_P1;PMS_P2;Temp;Humidity;BMP_temperature;BMP_pressure;BME280_temperature;BME280_humidity;BME280_pressure;Samples;Min_cycle;Max_cycle;Signal;HPM_P1;HPM_P2
2022/12/01 00:02:11;;;;;;;23.83;11.50;;;;;;;;;;5060371;28;20485;-83
2022/12/01 00:04:37;;;;;;;30.73;12.60;;;;;;;;;;5061618;28;20025;-82
2022/12/01 00:07:02;;;;;;;28.65;14.13;;;;;;;;;;5060138;28;20033;-82
2022/12/01 00:12:12;;;;;;;27.63;13.48;;;;;;;;;;5059599;28;20128;-82
2022/12/01 00:14:38;;;;;;;22.55;9.85;;;;;;;;;;5056462;28;20104;-81
2022/12/01 00:17:04;;;;;;;25.67;12.50;;;;;;;;;;5057547;28;20040;-81
2022/12/01 00:19:29;;;;;;;28.55;12.90;;;;;;;;;;5056755;28;20068;-83
2022/12/01 00:21:55;;;;;;;23.70;12.93;;;;;;;;;;5038719;28;20517;-82
2022/12/01 00:24:22;;;;;;;23.83;10.55;;;;;;;;;;5041603;28;20060;-81
2022/12/01 00:26:48;;;;;;;18.85;9.25;;;;;;;;;;5065428;28;20033;-82
2022/12/01 00:29:13;;;;;;;18.80;8.13;;;;;;;;;;5059650;28;20090;-84
2022/12/01 00:31:39;;;;;;;28.67;11.68;;;;;;;;;;5057754;28;20067;-82
2022/12/01 00:34:04;;;;;;;28.67;14.50;;;;;;;;;;5038551;28;20037;-81
2022/12/01 00:36:30;;;;;;;28.30;12.05;;;;;;;;;;5056557;28;20420;-82
2022/12/01 00:38:55;;;;;;;23.33;12.35;;;;;;;;;;5055357;28;20432;-82
2022/12/01 00:41:21;;;;;;;22.35;9.65;;;;;;;;;;5055461;28;20633;-82
2022/12/01 00:43:47;;;;;;;21.67;11.00;;;;;;;;;;5056694;28;20105;-83
2022/12/01 00:46:12;;;;;;;27.30;12.50;;;;;;;;;;5060084;28;20037;-81
2022/12/01 00:48:38;;;;;;;27.55;11.93;;;;;;;;;;5041472;28;20050;-80
2022/12/01 00:51:04;;;;;;;24.42;10.93;;;;;;;;;;5042100;28;20029;-82
2022/12/01 00:53:29;;;;;;;34.50;16.85;;;;;;;;;;5057713;28;20029;-81
2022/12/01 00:55:55;;;;;;;26.90;13.65;;;;;;;;;;5056346;28;20364;-82
2022/12/01 00:58:21;;;;;;;33.70;16.30;;;;;;;;;;5055226;28;20116;-82
2022/12/01 01:00:46;;;;;;;31.98;12.85;;;;;;;;;;5056089;28;20025;-82
2022/12/01 01:03:12;;;;;;;35.42;14.77;;;;;;;;;;5055836;28;20070;-82
2022/12/01 01:05:38;;;;;;;34.70;14.07;;;;;;;;;;5056539;28;20029;-82
2022/12/01 01:08:07;;;;;;;26.15;9.10;;;;;;;;;;5071032;28;20024;-81
2022/12/01 01:10:33;;;;;;;31.90;14.55;;;;;;;;;;5057823;28;20040;-82
2022/12/01 01:12:58;;;;;;;36.65;14.13;;;;;;;;;;5061935;28;20033;-81
2022/12/01 01:15:24;;;;;;;22.13;10.32;;;;;;;;;;5056716;28;20032;-82
2022/12/01 01:17:49;;;;;;;29.88;14.50;;;;;;;;;;5056880;28;20044;-82
2022/12/01 01:20:15;;;;;;;34.03;12.98;;;;;;;;;;5056208;28;20025;-81
2022/12/01 01:22:40;;;;;;;35.05;14.98;;;;;;;;;;5055876;28;20048;-81
2022/12/01 01:25:06;;;;;;;29.95;13.27;;;;;;;;;;5021207;28;20083;-82
2022/12/01 01:27:33;;;;;;;39.13;17.40;;;;;;;;;;5042297;28;20012;-83
2022/12/01 01:29:58;;;;;;;39.08;16.60;;;;;;;;;;5041187;28;20056;-81
2022/12/01 01:32:24;;;;;;;38.38;15.85;;;;;;;;;;5054009;28;20419;-82
2022/12/01 01:34:49;;;;;;;41.42;16.30;;;;;;;;;;5064588;28;20450;-82
2022/12/01 01:37:14;;;;;;;31.35;14.32;;;;;;;;;;5055406;28;20336;-82
2022/12/01 01:39:40;;;;;;;43.72;17.13;;;;;;;;;;5056484;28;20446;-81
2022/12/01 01:42:07;;;;;;;37.15;16.10;;;;;;;;;;5038008;28;20946;-81
2022/12/01 01:44:48;;;;;;;37.53;15.70;;;;;;;;;;5037758;28;20025;-81
2022/12/01 01:47:14;;;;;;;43.40;19.30;;;;;;;;;;5037104;28;20445;-81
2022/12/01 01:49:39;;;;;;;40.47;16.25;;;;;;;;;;5043128;28;20180;-82
2022/12/01 01:52:05;;;;;;;39.38;16.80;;;;;;;;;;5020735;28;20085;-82
2022/12/01 01:54:32;;;;;;;28.50;11.60;;;;;;;;;;5055522;28;20078;-80
2022/12/01 01:56:59;;;;;;;40.78;16.63;;;;;;;;;;5041411;28;20032;-81
2022/12/01 01:59:28;;;;;;;36.88;16.13;;;;;;;;;;5055332;28;20056;-82
2022/12/01 02:02:01;;;;;;;43.95;17.05;;;;;;;;;;5053282;28;20496;-83
2022/12/01 02:04:27;;;;;;;37.80;14.13;;;;;;;;;;5037251;28;20072;-81
2022/12/01 02:06:53;;;;;;;40.83;17.52;;;;;;;;;;5037876;28;20082;-81
2022/12/01 02:09:18;;;;;;;42.38;16.42;;;;;;;;;;5041378;28;20029;-79
2022/12/01 02:12:02;;;;;;;40.42;16.65;;;;;;;;;;5061493;28;20024;-81
2022/12/01 02:14:33;;;;;;;35.75;15.25;;;;;;;;;;5058067;28;20033;-80
2022/12/01 02:17:02;;;;;;;37.08;15.52;;;;;;;;;;5056687;28;20033;-82
2022/12/01 02:19:51;;;;;;;25.52;11.23;;;;;;;;;;5054870;28;20041;-81
2022/12/01 02:22:35;;;;;;;24.73;10.32;;;;;;;;;;5053229;28;20025;-82
2022/12/01 02:25:22;;;;;;;40.78;15.93;;;;;;;;;;5054422;28;20393;-81
2022/12/01 02:28:25;;;;;;;40.53;16.88;;;;;;;;;;5053544;28;20033;-81
2022/12/01 02:30:54;;;;;;;34.72;13.95;;;;;;;;;;5062574;28;20053;-80
2022/12/01 02:33:30;;;;;;;32.78;14.43;;;;;;;;;;5033548;28;20107;-81
2022/12/01 02:36:17;;;;;;;29.67;11.07;;;;;;;;;;5031917;28;20044;-82
2022/12/01 02:38:48;;;;;;;37.70;17.13;;;;;;;;;;5044026;28;20013;-80
2022/12/01 02:41:28;;;;;;;36.67;15.63;;;;;;;;;;5016724;28;20041;-81
2022/12/01 02:44:12;;;;;;;;;;;;;;;;;;5034708;28;20032;-82
2022/12/01 02:46:45;;;;;;;35.08;13.70;;;;;;;;;;5034125;28;19913;-83
2022/12/01 02:49:15;;;;;;;31.50;14.75;;;;;;;;;;5032290;28;20079;-81
2022/12/01 02:51:43;;;;;;;;;;;;;;;;;;5024480;28;20033;-80
2022/12/01 02:54:09;;;;;;;36.97;14.38;;;;;;;;;;5051089;28;19992;-82
2022/12/01 02:56:34;;;;;;;40.88;16.63;;;;;;;;;;5047204;28;20455;-82
2022/12/01 02:58:59;;;;;;;37.13;16.40;;;;;;;;;;5037256;28;20033;-81
2022/12/01 03:01:43;;;;;;;38.80;16.75;;;;;;;;;;5039898;28;20472;-83
2022/12/01 03:04:28;;;;;;;36.95;16.33;;;;;;;;;;5034794;28;20048;-82
2022/12/01 03:07:09;;;;;;;37.10;17.10;;;;;;;;;;5034157;28;20064;-81
2022/12/01 03:09:50;;;;;;;36.78;15.05;;;;;;;;;;5053831;28;20375;-81
2022/12/01 03:12:27;;;;;;;;;;;;;;;;;;5056460;28;20034;-81
2022/12/01 03:15:05;;;;;;;48.05;19.55;;;;;;;;;;5033709;28;19995;-81
2022/12/01 03:17:46;;;;;;;56.75;19.60;;;;;;;;;;5049292;28;20040;-82
2022/12/01 03:20:21;;;;;;;51.80;20.48;;;;;;;;;;5033763;28;20083;-81
2022/12/01 03:22:52;;;;;;;54.90;20.83;;;;;;;;;;5036407;28;20132;-83
2022/12/01 03:25:19;;;;;;;43.95;18.25;;;;;;;;;;5016111;28;20029;-81
2022/12/01 03:27:45;;;;;;;50.97;20.63;;;;;;;;;;5049386;28;20033;-81
2022/12/01 03:30:11;;;;;;;44.38;18.38;;;;;;;;;;5050707;28;20033;-80
2022/12/01 03:32:48;;;;;;;55.17;21.90;;;;;;;;;;5045402;28;20131;-82
2022/12/01 03:35:26;;;;;;;45.03;17.38;;;;;;;;;;5019677;28;20022;-82
2022/12/01 03:38:16;;;;;;;43.53;17.50;;;;;;;;;;5036221;28;20129;-81
2022/12/01 03:40:42;;;;;;;;;;;;;;;;;;5031630;28;20361;-81
2022/12/01 03:43:09;;;;;;;33.67;14.52;;;;;;;;;;5058771;28;19912;-81
2022/12/01 03:45:59;;;;;;;40.28;17.73;;;;;;;;;;5020229;28;20043;-81
2022/12/01 03:48:24;;;;;;;46.35;16.88;;;;;;;;;;5054723;28;20025;-81
2022/12/01 03:51:04;;;;;;;37.47;16.33;;;;;;;;;;5039780;28;20033;-82
2022/12/01 03:54:02;;;;;;;42.65;16.00;;;;;;;;;;5049306;28;20457;-81
2022/12/01 03:56:31;;;;;;;38.65;15.93;;;;;;;;;;5015075;28;20037;-82
2022/12/01 03:58:57;;;;;;;39.38;15.93;;;;;;;;;;5022529;28;20378;-81
2022/12/01 04:01:22;;;;;;;35.70;13.63;;;;;;;;;;5039615;28;20037;-80
2022/12/01 04:03:48;;;;;;;42.80;17.13;;;;;;;;;;5057867;28;20040;-81
2022/12/01 04:06:14;;;;;;;52.80;20.77;;;;;;;;;;5063559;28;20427;-81
2022/12/01 04:08:39;;;;;;;38.47;14.55;;;;;;;;;;5058690;28;20032;-82
2022/12/01 04:12:28;;;;;;;45.65;16.98;;;;;;;;;;5057329;28;20461;-81
2022/12/01 04:13:50;;;;;;;42.65;17.48;;;;;;;;;;5068412;28;20036;-82
2022/12/01 04:16:15;;;;;;;43.72;16.77;;;;;;;;;;5059685;28;20037;-82
2022/12/01 04:18:41;;;;;;;67.53;26.20;;;;;;;;;;5041269;28;20458;-81
2022/12/01 04:21:07;;;;;;;50.45;18.85;;;;;;;;;;5057296;28;20028;-79
2022/12/01 04:26:16;;;;;;;48.15;17.95;;;;;;;;;;5058169;28;20048;-80
2022/12/01 04:28:42;;;;;;;44.08;16.98;;;;;;;;;;5056598;28;20447;-80
2022/12/01 04:31:07;;;;;;;45.55;17.08;;;;;;;;;;5056784;28;20433;-82
2022/12/01 04:33:32;;;;;;;43.40;16.10;;;;;;;;;;5040829;28;20498;-80
2022/12/01 04:35:58;;;;;;;38.42;15.45;;;;;;;;;;5058070;28;20177;-81
2022/12/01 04:38:24;;;;;;;41.25;15.98;;;;;;;;;;5056411;28;20037;-80
2022/12/01 04:40:50;;;;;;;40.25;15.18;;;;;;;;;;5055214;28;20029;-80
2022/12/01 04:43:15;;;;;;;58.03;21.58;;;;;;;;;;5056323;28;20052;-81
2022/12/01 04:45:40;;;;;;;43.60;15.90;;;;;;;;;;5056622;28;20056;-80
2022/12/01 04:48:06;;;;;;;41.80;16.38;;;;;;;;;;5065063;28;20033;-82
2022/12/01 04:50:31;;;;;;;48.95;20.90;;;;;;;;;;5056134;28;20025;-81
2022/12/01 04:52:57;;;;;;;52.83;20.85;;;;;;;;;;5057785;28;20025;-79
2022/12/01 04:55:24;;;;;;;41.80;17.98;;;;;;;;;;5055641;28;20036;-82
2022/12/01 04:57:50;;;;;;;43.85;17.77;;;;;;;;;;5056106;28;20064;-82
2022/12/01 05:00:17;;;;;;;42.40;15.90;;;;;;;;;;5054560;28;20098;-81
2022/12/01 05:02:42;;;;;;;44.60;17.23;;;;;;;;;;5039384;28;20045;-81
2022/12/01 05:05:09;;;;;;;40.83;16.55;;;;;;;;;;5069798;28;20035;-82
2022/12/01 05:07:34;;;;;;;38.90;14.50;;;;;;;;;;5063012;28;20086;-81
2022/12/01 05:10:00;;;;;;;43.45;15.25;;;;;;;;;;5061935;28;20025;-80
2022/12/01 05:12:25;;;;;;;51.42;18.48;;;;;;;;;;5045289;28;20033;-82
2022/12/01 05:14:50;;;;;;;46.05;17.15;;;;;;;;;;5060203;28;20134;-79
2022/12/01 05:17:16;;;;;;;34.95;13.95;;;;;;;;;;5059408;28;20182;-81
2022/12/01 05:22:25;;;;;;;37.95;16.33;;;;;;;;;;5059655;28;20031;-84
2022/12/01 05:24:51;;;;;;;48.47;19.92;;;;;;;;;;5041725;28;20021;-82
2022/12/01 05:27:16;;;;;;;53.75;21.80;;;;;;;;;;5056468;28;20392;-82
2022/12/01 05:29:42;;;;;;;46.20;20.15;;;;;;;;;;5058843;28;20407;-81
2022/12/01 05:32:07;;;;;;;48.22;17.88;;;;;;;;;;5061961;28;20489;-82
2022/12/01 05:34:32;;;;;;;47.38;17.60;;;;;;;;;;5034805;28;20406;-82
2022/12/01 05:36:59;;;;;;;34.50;13.95;;;;;;;;;;5063764;28;20040;-81
2022/12/01 05:39:24;;;;;;;48.67;18.60;;;;;;;;;;5070301;28;20040;-82
2022/12/01 05:41:50;;;;;;;49.25;17.33;;;;;;;;;;5054354;28;20650;-81
2022/12/01 05:44:16;;;;;;;39.05;16.38;;;;;;;;;;5049583;28;20064;-83
2022/12/01 05:46:42;;;;;;;42.15;16.83;;;;;;;;;;5011010;28;20037;-83
2022/12/01 05:49:07;;;;;;;44.00;18.52;;;;;;;;;;5067697;28;20036;-80
2022/12/01 05:51:39;;;;;;;45.53;15.77;;;;;;;;;;5060933;28;20066;-80
2022/12/01 05:54:15;;;;;;;46.28;16.27;;;;;;;;;;5041439;28;20092;-81
2022/12/01 05:56:41;;;;;;;47.10;17.67;;;;;;;;;;5053679;28;20029;-82
2022/12/01 05:59:06;;;;;;;45.88;18.88;;;;;;;;;;5048694;28;20096;-85
2022/12/01 06:02:25;;;;;;;47.25;16.95;;;;;;;;;;5073049;28;20029;-83
2022/12/01 06:04:43;;;;;;;33.33;14.25;;;;;;;;;;5072897;28;20535;-82
2022/12/01 06:12:56;;;;;;;58.70;21.02;;;;;;;;;;5088993;22;20457;-84
2022/12/01 06:15:34;;;;;;;55.75;22.52;;;;;;;;;;5043082;28;20377;-80
2022/12/01 06:18:00;;;;;;;75.20;27.23;;;;;;;;;;5051320;28;20078;-81
2022/12/01 06:20:34;;;;;;;54.90;20.83;;;;;;;;;;5061650;28;20029;-86
2022/12/01 06:23:00;;;;;;;55.60;22.08;;;;;;;;;;5030910;28;20036;-85
2022/12/01 06:28:41;;;;;;;56.75;21.13;;;;;;;;;;5673869;22;20097;-83
2022/12/01 06:34:12;;;;;;;46.60;19.52;;;;;;;;;;5085597;22;20058;-84
2022/12/01 06:36:50;;;;;;;51.90;20.23;;;;;;;;;;5041135;28;20030;-86
2022/12/01 06:39:24;;;;;;;39.67;16.33;;;;;;;;;;5008887;28;20137;-86
2022/12/01 06:49:21;;;;;;;55.88;19.67;;;;;;;;;;5048488;22;20058;-82
2022/12/01 06:52:12;;;;;;;40.13;13.60;;;;;;;;;;5055771;28;20036;-87
2022/12/01 06:58:21;;;;;;;51.03;18.63;;;;;;;;;;5074595;28;20439;-84
2022/12/01 07:01:32;;;;;;;53.28;19.13;;;;;;;;;;5019285;28;20037;-83
2022/12/01 07:04:00;;;;;;;38.97;15.23;;;;;;;;;;5044660;28;20509;-84
2022/12/01 07:06:28;;;;;;;36.05;14.95;;;;;;;;;;5029220;28;20190;-82
2022/12/01 07:08:54;;;;;;;53.10;21.75;;;;;;;;;;5011369;28;20037;-84
2022/12/01 07:11:35;;;;;;;50.33;20.35;;;;;;;;;;5042848;28;20048;-83
2022/12/01 07:14:02;;;;;;;38.47;14.88;;;;;;;;;;5015531;28;20034;-80
2022/12/01 07:16:27;;;;;;;44.10;18.73;;;;;;;;;;5029991;28;20053;-83
2022/12/01 07:18:54;;;;;;;62.88;21.92;;;;;;;;;;5023033;28;20098;-81
2022/12/01 07:21:20;;;;;;;60.97;22.08;;;;;;;;;;5032815;28;20064;-82
2022/12/01 07:23:46;;;;;;;68.18;22.67;;;;;;;;;;5045794;28;20424;-82
2022/12/01 07:26:13;;;;;;;63.75;24.70;;;;;;;;;;5069683;28;20133;-84
2022/12/01 07:28:38;;;;;;;44.08;16.75;;;;;;;;;;5082615;28;20036;-83
2022/12/01 07:31:07;;;;;;;82.22;27.83;;;;;;;;;;5097524;28;20035;-81
2022/12/01 07:33:35;;;;;;;45.35;17.52;;;;;;;;;;5083552;28;20077;-82
2022/12/01 07:36:01;;;;;;;44.17;17.23;;;;;;;;;;5062609;28;20102;-84
2022/12/01 07:38:28;;;;;;;48.30;17.90;;;;;;;;;;5050543;28;20033;-82
2022/12/01 07:40:54;;;;;;;48.65;19.77;;;;;;;;;;5051678;28;20139;-84
2022/12/01 07:43:22;;;;;;;50.72;20.90;;;;;;;;;;5089324;28;20064;-83
2022/12/01 07:45:50;;;;;;;56.50;20.00;;;;;;;;;;5047360;28;20032;-81
2022/12/01 07:48:17;;;;;;;56.28;22.17;;;;;;;;;;5076735;28;20028;-83
2022/12/01 07:54:18;;;;;;;60.75;21.13;;;;;;;;;;5035058;28;20084;-86
2022/12/01 07:56:44;;;;;;;61.38;25.15;;;;;;;;;;5040907;28;20028;-81
2022/12/01 07:59:10;;;;;;;65.95;24.25;;;;;;;;;;5087647;28;20386;-81
2022/12/01 08:01:36;;;;;;;55.47;21.38;;;;;;;;;;5084554;28;20031;-81
2022/12/01 08:04:02;;;;;;;63.97;23.38;;;;;;;;;;5092735;28;20108;-82
2022/12/01 08:06:27;;;;;;;57.05;22.15;;;;;;;;;;5096960;28;20132;-81
2022/12/01 08:08:52;;;;;;;51.55;19.92;;;;;;;;;;5093461;28;20494;-80
2022/12/01 08:11:22;;;;;;;60.53;23.88;;;;;;;;;;5092823;28;20480;-80
2022/12/01 08:13:47;;;;;;;64.30;23.45;;;;;;;;;;5091587;28;20050;-80
2022/12/01 08:16:14;;;;;;;52.55;18.65;;;;;;;;;;5092941;28;20136;-82
2022/12/01 08:18:44;;;;;;;56.78;18.60;;;;;;;;;;5075781;28;20456;-81
2022/12/01 08:21:11;;;;;;;61.38;22.05;;;;;;;;;;5076672;28;20051;-79
2022/12/01 08:23:37;;;;;;;60.15;22.63;;;;;;;;;;5078826;28;20085;-80
2022/12/01 08:26:04;;;;;;;69.97;25.08;;;;;;;;;;5099161;28;20031;-81
2022/12/01 08:29:02;;;;;;;53.40;18.38;;;;;;;;;;5087338;28;20438;-84
2022/12/01 08:31:31;;;;;;;62.28;22.75;;;;;;;;;;5052253;28;20080;-84
2022/12/01 08:33:57;;;;;;;61.30;22.50;;;;;;;;;;5095024;28;20049;-83
2022/12/01 08:36:23;;;;;;;63.00;23.17;;;;;;;;;;5062177;28;20455;-82
2022/12/01 08:38:50;;;;;;;55.90;20.92;;;;;;;;;;5077362;28;20066;-82
2022/12/01 08:41:16;;;;;;;53.30;20.95;;;;;;;;;;5111518;28;20040;-81
2022/12/01 08:43:43;;;;;;;55.20;20.40;;;;;;;;;;5101743;28;20087;-81
2022/12/01 08:46:12;;;;;;;56.58;21.15;;;;;;;;;;5106514;28;20024;-80
2022/12/01 08:48:38;;;;;;;49.45;20.45;;;;;;;;;;5057499;28;20064;-79
2022/12/01 08:51:14;;;;;;;57.22;21.65;;;;;;;;;;5075640;28;20059;-79
2022/12/01 08:53:43;;;;;;;61.05;24.60;;;;;;;;;;5037313;28;20068;-83
2022/12/01 08:56:20;;;;;;;51.70;19.88;;;;;;;;;;5079019;28;20455;-80
2022/12/01 08:59:06;;;;;;;56.95;21.75;;;;;;;;;;5057368;28;20768;-82
2022/12/01 09:01:32;;;;;;;46.88;20.73;;;;;;;;;;5075807;28;20028;-81
2022/12/01 09:04:06;;;;;;;51.25;21.45;;;;;;;;;;5098308;28;20092;-80
2022/12/01 09:06:42;;;;;;;51.55;21.17;;;;;;;;;;5093064;28;20047;-81
2022/12/01 09:09:18;;;;;;;49.85;19.77;;;;;;;;;;5095474;28;20100;-80
2022/12/01 09:11:44;;;;;;;45.83;18.23;;;;;;;;;;5091207;28;20043;-82
2022/12/01 09:14:14;;;;;;;45.40;17.70;;;;;;;;;;5094220;28;20023;-81
2022/12/01 09:16:41;;;;;;;50.47;19.77;;;;;;;;;;5095303;28;20046;-80
2022/12/01 09:19:07;;;;;;;49.78;21.15;;;;;;;;;;5094200;28;20039;-80
2022/12/01 09:21:33;;;;;;;54.08;20.00;;;;;;;;;;5092632;28;20101;-79
2022/12/01 09:23:59;;;;;;;49.55;20.55;;;;;;;;;;5100182;28;20048;-80
2022/12/01 09:26:24;;;;;;;49.97;21.25;;;;;;;;;;5095238;28;20032;-82
2022/12/01 09:29:01;;;;;;;36.22;15.07;;;;;;;;;;5094437;28;20188;-82
2022/12/01 09:31:27;;;;;;;50.05;19.33;;;;;;;;;;5093559;28;20105;-82
2022/12/01 09:33:57;;;;;;;45.85;18.67;;;;;;;;;;5095383;28;20131;-80
2022/12/01 09:36:22;;;;;;;40.47;16.52;;;;;;;;;;5095317;28;20036;-81
2022/12/01 09:38:47;;;;;;;50.92;19.35;;;;;;;;;;5097595;28;20444;-81
2022/12/01 09:41:18;;;;;;;49.30;19.70;;;;;;;;;;5101841;28;20346;-82
2022/12/01 09:43:59;;;;;;;63.58;21.83;;;;;;;;;;5104145;28;20441;-81
2022/12/01 09:46:29;;;;;;;55.08;21.35;;;;;;;;;;5066281;28;20062;-85
2022/12/01 09:49:04;;;;;;;53.42;20.92;;;;;;;;;;5083977;28;20044;-84
2022/12/01 09:51:36;;;;;;;57.70;24.40;;;;;;;;;;5101033;28;20043;-79
2022/12/01 09:54:01;;;;;;;53.42;21.58;;;;;;;;;;5053065;28;20058;-80
2022/12/01 09:56:29;;;;;;;55.08;20.15;;;;;;;;;;5089608;28;20024;-82
2022/12/01 09:58:57;;;;;;;48.30;18.88;;;;;;;;;;5052196;28;20032;-82
2022/12/01 10:01:51;;;;;;;47.33;21.17;;;;;;;;;;5077674;28;20089;-80
2022/12/01 10:04:41;;;;;;;51.75;19.77;;;;;;;;;;5088670;28;20071;-85
2022/12/01 10:07:15;;;;;;;41.95;16.60;;;;;;;;;;5074478;28;20122;-81
2022/12/01 10:10:00;;;;;;;44.50;18.70;;;;;;;;;;5092279;28;20054;-83
2022/12/01 10:18:43;;;;;;;41.97;17.10;;;;;;;;;;5049719;28;20074;-86
2022/12/01 10:21:41;;;;;;;42.80;17.85;;;;;;;;;;5070857;28;20032;-85
2022/12/01 10:24:21;;;;;;;50.58;19.52;;;;;;;;;;5083447;28;20039;-81
2022/12/01 10:27:01;;;;;;;51.38;21.15;;;;;;;;;;5091121;28;20104;-81
2022/12/01 10:29:36;;;;;;;;;;;;;;;;;;5070957;28;20442;-81
2022/12/01 10:32:16;;;;;;;44.25;16.23;;;;;;;;;;5077988;28;19987;-81
2022/12/01 10:34:41;;;;;;;41.42;17.83;;;;;;;;;;5069804;28;20020;-78
2022/12/01 10:37:21;;;;;;;45.60;17.92;;;;;;;;;;5062639;28;20035;-87
2022/12/01 10:40:34;;;;;;;43.08;15.57;;;;;;;;;;5051426;28;20063;-92
2022/12/01 10:43:00;;;;;;;32.45;13.05;;;;;;;;;;5083824;28;20043;-90
2022/12/01 10:45:33;;;;;;;45.15;19.58;;;;;;;;;;5078300;28;20023;-86
2022/12/01 10:48:26;;;;;;;36.50;15.25;;;;;;;;;;5086108;28;20024;-86
2022/12/01 10:50:53;;;;;;;43.60;17.10;;;;;;;;;;5058964;28;20028;-84
2022/12/01 10:53:22;;;;;;;35.78;15.32;;;;;;;;;;5062184;28;20036;-81
2022/12/01 10:55:49;;;;;;;41.85;18.67;;;;;;;;;;5057644;28;20043;-82
2022/12/01 10:58:14;;;;;;;34.58;16.33;;;;;;;;;;5035568;28;20128;-80
2022/12/01 11:00:46;;;;;;;39.67;17.35;;;;;;;;;;5065287;28;20054;-86
2022/12/01 11:03:19;;;;;;;37.03;15.73;;;;;;;;;;5056184;28;20043;-79
2022/12/01 11:05:44;;;;;;;44.67;19.48;;;;;;;;;;5063348;28;20103;-80
2022/12/01 11:08:40;;;;;;;38.30;17.52;;;;;;;;;;5047392;28;20082;-81
2022/12/01 11:11:06;;;;;;;36.92;16.30;;;;;;;;;;5060077;28;20051;-82
2022/12/01 11:13:34;;;;;;;32.05;15.50;;;;;;;;;;5071949;28;20741;-81
2022/12/01 11:16:01;;;;;;;38.20;15.48;;;;;;;;;;5088004;28;20044;-85
2022/12/01 11:18:31;;;;;;;43.42;18.83;;;;;;;;;;5069767;28;20123;-80
2022/12/01 11:21:05;;;;;;;42.55;18.27;;;;;;;;;;5088119;28;20029;-80
2022/12/01 11:23:36;;;;;;;44.58;21.10;;;;;;;;;;5071368;28;20037;-81
2022/12/01 11:26:12;;;;;;;42.45;17.98;;;;;;;;;;5053970;28;20093;-82
2022/12/01 11:28:41;;;;;;;44.63;17.80;;;;;;;;;;5072228;28;20033;-81
2022/12/01 11:31:08;;;;;;;49.03;21.35;;;;;;;;;;5073869;28;20032;-81
2022/12/01 11:33:51;;;;;;;44.97;18.73;;;;;;;;;;5070780;28;20041;-79
2022/12/01 11:36:27;;;;;;;53.97;19.77;;;;;;;;;;5050420;28;20098;-83
2022/12/01 11:39:36;;;;;;;50.05;22.30;;;;;;;;;;5049212;28;20054;-85
2022/12/01 11:42:33;;;;;;;46.47;19.42;;;;;;;;;;5067838;28;20036;-81
2022/12/01 11:45:21;;;;;;;44.97;19.05;;;;;;;;;;5049438;28;20044;-82
2022/12/01 11:48:11;;;;;;;41.03;15.77;;;;;;;;;;5053045;28;20051;-79
2022/12/01 11:50:40;;;;;;;;;;;;;;;;;;5047110;28;20105;-81
2022/12/01 11:53:28;;;;;;;26.08;11.70;;;;;;;;;;5032673;28;20019;-82
2022/12/01 11:56:13;;;;;;;38.13;16.48;;;;;;;;;;5073942;28;20040;-84
2022/12/01 11:58:40;;;;;;;32.03;13.18;;;;;;;;;;5067373;28;20123;-86
2022/12/01 12:01:37;;;;;;;42.03;20.65;;;;;;;;;;5057520;28;20024;-81
2022/12/01 12:04:23;;;;;;;39.97;18.35;;;;;;;;;;5013084;28;20442;-81
2022/12/01 12:06:59;;;;;;;45.60;20.85;;;;;;;;;;5035310;28;20036;-88
2022/12/01 12:09:49;;;;;;;43.55;16.80;;;;;;;;;;5047424;28;20438;-82
2022/12/01 12:12:45;;;;;;;41.75;17.52;;;;;;;;;;5076644;28;20394;-85
2022/12/01 12:15:40;;;;;;;39.47;18.17;;;;;;;;;;5043081;28;20084;-86
2022/12/01 12:18:30;;;;;;;43.95;20.02;;;;;;;;;;5058212;28;20044;-85
2022/12/01 12:21:07;;;;;;;47.85;17.73;;;;;;;;;;5037572;28;20029;-83
2022/12/01 12:23:40;;;;;;;48.72;18.75;;;;;;;;;;5049721;28;20036;-83
2022/12/01 12:26:26;;;;;;;46.00;19.02;;;;;;;;;;5062776;28;20047;-81
2022/12/01 12:32:30;;;;;;;48.40;21.55;;;;;;;;;;5060710;22;20144;-83
2022/12/01 12:35:31;;;;;;;30.02;13.50;;;;;;;;;;5036216;28;20020;-81
2022/12/01 12:38:15;;;;;;;34.78;16.92;;;;;;;;;;5049595;28;20024;-80
2022/12/01 12:40:42;;;;;;;33.97;14.98;;;;;;;;;;5078842;28;20465;-79
2022/12/01 12:43:14;;;;;;;31.92;13.65;;;;;;;;;;5064091;28;20170;-80
2022/12/01 12:46:06;;;;;;;29.13;14.85;;;;;;;;;;5053370;28;20037;-82
2022/12/01 12:49:26;;;;;;;29.35;13.43;;;;;;;;;;5035472;28;20040;-80
2022/12/01 12:51:53;;;;;;;40.08;17.88;;;;;;;;;;4994597;28;20076;-83
2022/12/01 12:55:20;;;;;;;34.88;14.50;;;;;;;;;;5032300;28;20059;-84
2022/12/01 12:57:51;;;;;;;35.70;15.65;;;;;;;;;;5048368;28;20045;-83
2022/12/01 13:00:22;;;;;;;38.50;17.27;;;;;;;;;;5037412;28;20446;-83
2022/12/01 13:05:48;;;;;;;35.05;16.17;;;;;;;;;;5110066;22;20056;-88
2022/12/01 13:08:28;;;;;;;29.25;13.00;;;;;;;;;;5082041;28;20036;-87
2022/12/01 13:11:13;;;;;;;36.00;15.43;;;;;;;;;;5084018;28;20458;-85
2022/12/01 13:13:59;;;;;;;26.42;12.23;;;;;;;;;;5083125;28;20019;-87
2022/12/01 13:16:48;;;;;;;22.73;12.05;;;;;;;;;;5084417;28;20032;-88
2022/12/01 13:22:39;;;;;;;26.27;12.48;;;;;;;;;;5097671;28;20047;-87
2022/12/01 13:25:04;;;;;;;24.65;13.25;;;;;;;;;;5062367;28;20031;-87
2022/12/01 13:27:34;;;;;;;24.88;12.07;;;;;;;;;;5076551;28;20040;-85
2022/12/01 13:30:00;;;;;;;31.55;12.73;;;;;;;;;;5076739;28;20158;-86
2022/12/01 13:32:36;;;;;;;31.98;16.75;;;;;;;;;;5077351;28;20108;-84
2022/12/01 13:35:05;;;;;;;25.98;11.57;;;;;;;;;;5100496;28;20024;-84
2022/12/01 13:37:35;;;;;;;23.60;12.13;;;;;;;;;;5088153;28;20134;-82
2022/12/01 13:40:28;;;;;;;25.17;12.00;;;;;;;;;;5079072;28;20051;-84
2022/12/01 13:43:00;;;;;;;31.80;16.70;;;;;;;;;;5097362;28;20039;-84
2022/12/01 13:45:28;;;;;;;26.13;12.13;;;;;;;;;;5107136;28;20043;-85
2022/12/01 13:47:57;;;;;;;26.00;12.75;;;;;;;;;;5100884;28;20043;-85
2022/12/01 13:50:45;;;;;;;24.60;12.30;;;;;;;;;;5107318;28;20140;-84
2022/12/01 13:53:32;;;;;;;29.05;14.77;;;;;;;;;;5098705;28;20120;-86
2022/12/01 13:56:16;;;;;;;26.05;11.60;;;;;;;;;;5110581;28;20065;-85
2022/12/01 13:58:47;;;;;;;24.23;12.43;;;;;;;;;;5101483;28;20039;-85
2022/12/01 14:01:19;;;;;;;33.42;15.00;;;;;;;;;;5078266;28;20079;-85
2022/12/01 14:03:51;;;;;;;33.35;13.10;;;;;;;;;;5097741;28;20051;-86
2022/12/01 14:06:28;;;;;;;25.83;11.82;;;;;;;;;;5091125;28;20036;-84
2022/12/01 14:09:01;;;;;;;25.20;11.73;;;;;;;;;;5087901;28;20397;-84
2022/12/01 14:11:27;;;;;;;24.92;12.13;;;;;;;;;;5084260;28;20073;-85
2022/12/01 14:14:00;;;;;;;17.70;9.48;;;;;;;;;;5088240;28;20015;-84
2022/12/01 14:16:52;;;;;;;31.25;15.13;;;;;;;;;;5103227;28;20016;-85
2022/12/01 14:19:57;;;;;;;29.60;13.70;;;;;;;;;;5096328;28;20504;-84
2022/12/01 14:22:49;;;;;;;34.92;16.10;;;;;;;;;;5048436;28;20031;-85
2022/12/01 14:25:21;;;;;;;30.48;14.57;;;;;;;;;;5094277;28;20058;-84
2022/12/01 14:27:53;;;;;;;26.25;12.93;;;;;;;;;;5095525;28;20073;-84
2022/12/01 14:30:40;;;;;;;30.38;13.27;;;;;;;;;;5094152;28;20456;-84
2022/12/01 14:33:40;;;;;;;28.20;14.60;;;;;;;;;;5103097;28;20039;-84
2022/12/01 14:36:13;;;;;;;32.33;16.35;;;;;;;;;;5096345;28;20061;-82
2022/12/01 14:38:39;;;;;;;31.27;14.63;;;;;;;;;;5102977;28;20131;-85
2022/12/01 14:41:08;;;;;;;25.42;11.63;;;;;;;;;;5092440;28;20024;-85
2022/12/01 14:46:21;;;;;;;31.15;14.50;;;;;;;;;;5092768;28;20098;-88
2022/12/01 14:48:47;;;;;;;28.42;13.38;;;;;;;;;;5094506;28;20063;-87
2022/12/01 14:51:16;;;;;;;33.95;16.77;;;;;;;;;;5085373;22;20044;-81
2022/12/01 14:53:43;;;;;;;37.72;17.35;;;;;;;;;;5094621;28;20028;-82
2022/12/01 14:56:11;;;;;;;31.75;14.60;;;;;;;;;;5059098;28;20032;-81
2022/12/01 14:58:37;;;;;;;40.30;17.33;;;;;;;;;;5058078;28;20028;-81
2022/12/01 15:01:07;;;;;;;34.72;16.10;;;;;;;;;;5074500;28;20024;-83
2022/12/01 15:03:47;;;;;;;38.95;18.55;;;;;;;;;;5075099;28;20024;-82
2022/12/01 15:06:20;;;;;;;;;;;;;;;;;;5061257;28;20039;-80
2022/12/01 15:08:45;;;;;;;35.80;17.83;;;;;;;;;;5080088;28;20253;-82
2022/12/01 15:11:19;;;;;;;44.15;21.85;;;;;;;;;;5093285;28;20028;-81
2022/12/01 15:13:47;;;;;;;44.55;20.38;;;;;;;;;;5060279;28;20031;-81
2022/12/01 15:16:17;;;;;;;38.30;17.02;;;;;;;;;;5093936;28;20024;-81
2022/12/01 15:18:42;;;;;;;40.47;18.27;;;;;;;;;;5093679;28;20036;-81
2022/12/01 15:21:14;;;;;;;40.72;17.40;;;;;;;;;;5076025;28;20031;-81
2022/12/01 15:24:17;;;;;;;43.47;17.67;;;;;;;;;;5075856;28;20381;-81
2022/12/01 15:26:56;;;;;;;39.03;19.02;;;;;;;;;;5076483;28;20024;-81
2022/12/01 15:29:27;;;;;;;43.25;19.23;;;;;;;;;;5083515;28;20047;-81
2022/12/01 15:31:55;;;;;;;50.38;23.05;;;;;;;;;;5093963;28;20035;-81
2022/12/01 15:34:53;;;;;;;51.65;23.95;;;;;;;;;;5042866;28;20060;-81
2022/12/01 15:37:20;;;;;;;50.03;23.60;;;;;;;;;;4995170;28;20049;-81
2022/12/01 15:39:47;;;;;;;45.30;21.30;;;;;;;;;;5006753;28;20040;-80
2022/12/01 15:42:24;;;;;;;48.95;22.02;;;;;;;;;;5076080;28;20020;-81
2022/12/01 15:45:20;;;;;;;54.95;25.25;;;;;;;;;;5062744;28;20050;-81